sensor_id;sensor_type;location;lat;lon;timestamp;P1;durP1;ratioP1;P2;durP2;ratioP2
83443;SDS011;73374;41.170;-96.156;2023-11-21T00:01:35;11.45;;;8.23;;
83443;SDS011;73374;41.170;-96.156;2023-11-21T00:04:02;10.35;;;7.57;;
83443;SDS011;73374;41.170;-96.156;2023-11-21T00:06:30;10.82;;;7.68;;
83443;SDS011;73374;41.170;-96.156;2023-11-21T00:08:59;12.27;;;7.43;;
83443;SDS011;73374;41.170;-96.156;2023-11-21T00:11:26;9.60;;;7.00;;
83443;SDS011;73374;41.170;-96.156;2023-11-21T00:13:54;9.63;;;6.72;;
83443;SDS011;73374;41.170;-96.156;2023-11-21T00:16:21;8.85;;;6.60;;
83443;SDS011;73374;41.170;-96.156;2023-11-21T00:18:48;10.50;;;6.82;;
83443;SDS011;73374;41.170;-96.156;2023-11-21T00:21:16;8.77;;;6.70;;
83443;SDS011;73374;41.170;-96.156;2023-11-21T00:23:43;9.18;;;7.00;;
83443;SDS011;73374;41.170;-96.156;2023-11-21T00:26:12;10.02;;;7.53;;
83443;SDS011;73374;41.170;-96.156;2023-11-21T00:28:40;9.30;;;6.43;;
83443;SDS011;73374;41.170;-96.156;2023-11-21T00:31:07;11.35;;;7.28;;
83443;SDS011;73374;41.170;-96.156;2023-11-21T00:33:34;9.60;;;7.22;;
83443;SDS011;73374;41.170;-96.156;2023-11-21T00:36:02;11.27;;;6.35;;
83443;SDS011;73374;41.170;-96.156;2023-11-21T00:38:29;9.23;;;6.80;;
83443;SDS011;73374;41.170;-96.156;2023-11-21T00:40:57;9.07;;;7.00;;
83443;SDS011;73374;41.170;-96.156;2023-11-21T00:43:26;10.13;;;5.88;;
83443;SDS011;73374;41.170;-96.156;2023-11-21T00:45:53;10.38;;;7.32;;
83443;SDS011;73374;41.170;-96.156;2023-11-21T00:48:21;9.35;;;7.07;;
83443;SDS011;73374;41.170;-96.156;2023-11-21T00:50:48;10.32;;;7.47;;
83443;SDS011;73374;41.170;-96.156;2023-11-21T00:53:16;10.32;;;7.55;;
83443;SDS011;73374;41.170;-96.156;2023-11-21T00:55:43;10.48;;;6.32;;
83443;SDS011;73374;41.170;-96.156;2023-11-21T00:58:10;9.40;;;7.15;;
83443;SDS011;73374;41.170;-96.156;2023-11-21T01:00:39;12.20;;;7.10;;
83443;SDS011;73374;41.170;-96.156;2023-11-21T01:03:07;9.90;;;6.30;;
83443;SDS011;73374;41.170;-96.156;2023-11-21T01:05:35;9.45;;;6.75;;
83443;SDS011;73374;41.170;-96.156;2023-11-21T01:08:02;9.38;;;6.63;;
83443;SDS011;73374;41.170;-96.156;2023-11-21T01:10:29;12.40;;;7.53;;
83443;SDS011;73374;41.170;-96.156;2023-11-21T01:12:57;11.88;;;7.82;;
83443;SDS011;73374;41.170;-96.156;2023-11-21T01:15:24;11.82;;;8.05;;
83443;SDS011;73374;41.170;-96.156;2023-11-21T01:17:53;11.70;;;7.65;;
83443;SDS011;73374;41.170;-96.156;2023-11-21T01:20:20;9.27;;;7.45;;
83443;SDS011;73374;41.170;-96.156;2023-11-21T01:22:48;12.05;;;7.57;;
83443;SDS011;73374;41.170;-96.156;2023-11-21T01:25:16;13.05;;;7.22;;
83443;SDS011;73374;41.170;-96.156;2023-11-21T01:27:43;9.82;;;7.35;;
83443;SDS011;73374;41.170;-96.156;2023-11-21T01:30:10;10.38;;;7.38;;
83443;SDS011;73374;41.170;-96.156;2023-11-21T01:32:38;9.75;;;6.60;;
83443;SDS011;73374;41.170;-96.156;2023-11-21T01:35:08;10.77;;;8.25;;
83443;SDS011;73374;41.170;-96.156;2023-11-21T01:37:36;10.80;;;7.22;;
83443;SDS011;73374;41.170;-96.156;2023-11-21T01:40:03;10.50;;;7.22;;
83443;SDS011;73374;41.170;-96.156;2023-11-21T01:42:31;10.75;;;7.82;;
83443;SDS011;73374;41.170;-96.156;2023-11-21T01:44:58;11.40;;;8.60;;
83443;SDS011;73374;41.170;-96.156;2023-11-21T01:47:26;9.88;;;8.35;;
83443;SDS011;73374;41.170;-96.156;2023-11-21T01:49:53;10.30;;;7.90;;
83443;SDS011;73374;41.170;-96.156;2023-11-21T01:52:22;10.27;;;7.38;;
83443;SDS011;73374;41.170;-96.156;2023-11-21T01:54:50;11.15;;;7.28;;
83443;SDS011;73374;41.170;-96.156;2023-11-21T01:57:19;12.82;;;8.02;;
83443;SDS011;73374;41.170;-96.156;2023-11-21T01:59:46;10.55;;;7.78;;
83443;SDS011;73374;41.170;-96.156;2023-11-21T02:02:15;11.80;;;8.50;;
83443;SDS011;73374;41.170;-96.156;2023-11-21T02:04:42;11.40;;;7.95;;
83443;SDS011;73374;41.170;-96.156;2023-11-21T02:07:10;13.40;;;8.13;;
83443;SDS011;73374;41.170;-96.156;2023-11-21T02:09:39;13.35;;;8.95;;
83443;SDS011;73374;41.170;-96.156;2023-11-21T02:12:06;11.82;;;8.13;;
83443;SDS011;73374;41.170;-96.156;2023-11-21T02:14:34;12.65;;;8.23;;
83443;SDS011;73374;41.170;-96.156;2023-11-21T02:17:01;9.57;;;7.13;;
83443;SDS011;73374;41.170;-96.156;2023-11-21T02:19:29;12.68;;;8.02;;
83443;SDS011;73374;41.170;-96.156;2023-11-21T02:21:57;13.25;;;8.27;;
83443;SDS011;73374;41.170;-96.156;2023-11-21T02:24:26;15.43;;;8.25;;
83443;SDS011;73374;41.170;-96.156;2023-11-21T02:26:53;12.27;;;8.23;;
83443;SDS011;73374;41.170;-96.156;2023-11-21T02:29:20;12.10;;;8.10;;
83443;SDS011;73374;41.170;-96.156;2023-11-21T02:31:49;11.70;;;7.63;;
83443;SDS011;73374;41.170;-96.156;2023-11-21T02:34:16;11.63;;;8.13;;
83443;SDS011;73374;41.170;-96.156;2023-11-21T02:36:44;14.68;;;8.60;;
83443;SDS011;73374;41.170;-96.156;2023-11-21T02:39:11;11.35;;;7.88;;
83443;SDS011;73374;41.170;-96.156;2023-11-21T02:41:41;9.40;;;7.63;;
83443;SDS011;73374;41.170;-96.156;2023-11-21T02:44:08;9.77;;;7.65;;
83443;SDS011;73374;41.170;-96.156;2023-11-21T02:46:36;10.75;;;8.25;;
83443;SDS011;73374;41.170;-96.156;2023-11-21T02:49:04;10.25;;;7.82;;
83443;SDS011;73374;41.170;-96.156;2023-11-21T02:51:31;10.27;;;8.30;;
83443;SDS011;73374;41.170;-96.156;2023-11-21T02:53:59;10.13;;;8.18;;
83443;SDS011;73374;41.170;-96.156;2023-11-21T02:56:26;10.15;;;7.80;;
83443;SDS011;73374;41.170;-96.156;2023-11-21T02:58:55;11.25;;;7.50;;
83443;SDS011;73374;41.170;-96.156;2023-11-21T03:01:23;10.75;;;7.40;;
83443;SDS011;73374;41.170;-96.156;2023-11-21T03:03:51;12.52;;;7.82;;
83443;SDS011;73374;41.170;-96.156;2023-11-21T03:06:19;10.25;;;8.40;;
83443;SDS011;73374;41.170;-96.156;2023-11-21T03:08:47;12.15;;;8.73;;
83443;SDS011;73374;41.170;-96.156;2023-11-21T03:11:14;11.70;;;6.97;;
83443;SDS011;73374;41.170;-96.156;2023-11-21T03:13:41;11.63;;;8.90;;
83443;SDS011;73374;41.170;-96.156;2023-11-21T03:16:11;10.38;;;8.88;;
83443;SDS011;73374;41.170;-96.156;2023-11-21T03:18:38;12.48;;;8.57;;
83443;SDS011;73374;41.170;-96.156;2023-11-21T03:21:06;13.80;;;10.10;;
83443;SDS011;73374;41.170;-96.156;2023-11-21T03:23:34;13.02;;;7.93;;
83443;SDS011;73374;41.170;-96.156;2023-11-21T03:26:01;13.23;;;8.75;;
83443;SDS011;73374;41.170;-96.156;2023-11-21T03:28:28;9.68;;;6.78;;
83443;SDS011;73374;41.170;-96.156;2023-11-21T03:30:56;11.23;;;7.97;;
83443;SDS011;73374;41.170;-96.156;2023-11-21T03:33:25;11.20;;;8.60;;
83443;SDS011;73374;41.170;-96.156;2023-11-21T03:35:52;10.27;;;8.60;;
83443;SDS011;73374;41.170;-96.156;2023-11-21T03:38:20;11.85;;;9.05;;
83443;SDS011;73374;41.170;-96.156;2023-11-21T03:40:47;10.32;;;7.90;;
83443;SDS011;73374;41.170;-96.156;2023-11-21T03:43:14;10.90;;;7.80;;
83443;SDS011;73374;41.170;-96.156;2023-11-21T03:45:42;11.60;;;8.00;;
83443;SDS011;73374;41.170;-96.156;2023-11-21T03:48:09;11.82;;;8.13;;
83443;SDS011;73374;41.170;-96.156;2023-11-21T03:50:40;9.77;;;7.35;;
83443;SDS011;73374;41.170;-96.156;2023-11-21T03:53:08;11.43;;;7.90;;
83443;SDS011;73374;41.170;-96.156;2023-11-21T03:55:35;10.93;;;7.38;;
83443;SDS011;73374;41.170;-96.156;2023-11-21T03:58:03;9.48;;;6.60;;
83443;SDS011;73374;41.170;-96.156;2023-11-21T04:00:31;11.18;;;6.68;;
83443;SDS011;73374;41.170;-96.156;2023-11-21T04:02:58;11.65;;;7.05;;
83443;SDS011;73374;41.170;-96.156;2023-11-21T04:05:26;10.88;;;7.75;;
83443;SDS011;73374;41.170;-96.156;2023-11-21T04:07:55;9.48;;;6.75;;
83443;SDS011;73374;41.170;-96.156;2023-11-21T04:10:22;10.15;;;7.65;;
83443;SDS011;73374;41.170;-96.156;2023-11-21T04:12:49;11.45;;;7.05;;
83443;SDS011;73374;41.170;-96.156;2023-11-21T04:15:17;10.07;;;6.80;;
83443;SDS011;73374;41.170;-96.156;2023-11-21T04:17:44;9.93;;;7.13;;
83443;SDS011;73374;41.170;-96.156;2023-11-21T04:20:12;11.45;;;7.40;;
83443;SDS011;73374;41.170;-96.156;2023-11-21T04:22:39;11.13;;;7.60;;
83443;SDS011;73374;41.170;-96.156;2023-11-21T04:25:09;9.45;;;7.28;;
83443;SDS011;73374;41.170;-96.156;2023-11-21T04:27:37;9.35;;;6.25;;
83443;SDS011;73374;41.170;-96.156;2023-11-21T04:30:05;9.75;;;7.22;;
83443;SDS011;73374;41.170;-96.156;2023-11-21T04:32:33;13.43;;;8.15;;
83443;SDS011;73374;41.170;-96.156;2023-11-21T04:35:00;8.55;;;6.60;;
83443;SDS011;73374;41.170;-96.156;2023-11-21T04:37:28;10.43;;;6.53;;
83443;SDS011;73374;41.170;-96.156;2023-11-21T04:39:55;11.45;;;7.07;;
83443;SDS011;73374;41.170;-96.156;2023-11-21T04:42:24;10.13;;;7.10;;
83443;SDS011;73374;41.170;-96.156;2023-11-21T04:44:51;10.07;;;6.97;;
83443;SDS011;73374;41.170;-96.156;2023-11-21T04:47:19;11.95;;;7.32;;
83443;SDS011;73374;41.170;-96.156;2023-11-21T04:49:46;10.90;;;6.80;;
83443;SDS011;73374;41.170;-96.156;2023-11-21T04:52:14;8.52;;;6.13;;
83443;SDS011;73374;41.170;-96.156;2023-11-21T04:54:41;10.90;;;6.35;;
83443;SDS011;73374;41.170;-96.156;2023-11-21T04:57:08;9.68;;;6.30;;
83443;SDS011;73374;41.170;-96.156;2023-11-21T04:59:37;7.90;;;5.55;;
83443;SDS011;73374;41.170;-96.156;2023-11-21T05:02:05;8.63;;;5.68;;
83443;SDS011;73374;41.170;-96.156;2023-11-21T05:04:32;8.90;;;6.32;;
83443;SDS011;73374;41.170;-96.156;2023-11-21T05:06:59;10.50;;;6.53;;
83443;SDS011;73374;41.170;-96.156;2023-11-21T05:09:27;10.73;;;6.03;;
83443;SDS011;73374;41.170;-96.156;2023-11-21T05:11:54;8.55;;;6.38;;
83443;SDS011;73374;41.170;-96.156;2023-11-21T05:14:22;9.60;;;6.03;;
83443;SDS011;73374;41.170;-96.156;2023-11-21T05:16:50;8.90;;;6.60;;
83443;SDS011;73374;41.170;-96.156;2023-11-21T05:19:18;11.75;;;6.05;;
83443;SDS011;73374;41.170;-96.156;2023-11-21T05:21:45;10.07;;;5.80;;
83443;SDS011;73374;41.170;-96.156;2023-11-21T05:24:13;9.32;;;5.60;;
83443;SDS011;73374;41.170;-96.156;2023-11-21T05:26:40;8.93;;;6.25;;
83443;SDS011;73374;41.170;-96.156;2023-11-21T05:29:07;8.25;;;6.32;;
83443;SDS011;73374;41.170;-96.156;2023-11-21T05:31:35;9.88;;;6.18;;
83443;SDS011;73374;41.170;-96.156;2023-11-21T05:34:04;9.35;;;6.53;;
83443;SDS011;73374;41.170;-96.156;2023-11-21T05:36:31;8.43;;;6.53;;
83443;SDS011;73374;41.170;-96.156;2023-11-21T05:38:59;9.18;;;5.63;;
83443;SDS011;73374;41.170;-96.156;2023-11-21T05:41:26;9.32;;;6.10;;
83443;SDS011;73374;41.170;-96.156;2023-11-21T05:43:53;8.02;;;5.85;;
83443;SDS011;73374;41.170;-96.156;2023-11-21T05:46:21;9.15;;;5.78;;
83443;SDS011;73374;41.170;-96.156;2023-11-21T05:48:48;8.15;;;6.00;;
83443;SDS011;73374;41.170;-96.156;2023-11-21T05:51:17;10.52;;;6.28;;
83443;SDS011;73374;41.170;-96.156;2023-11-21T05:53:44;10.60;;;6.32;;
83443;SDS011;73374;41.170;-96.156;2023-11-21T05:56:12;15.18;;;6.53;;
83443;SDS011;73374;41.170;-96.156;2023-11-21T05:58:39;8.23;;;6.20;;
83443;SDS011;73374;41.170;-96.156;2023-11-21T06:01:07;8.85;;;6.50;;
83443;SDS011;73374;41.170;-96.156;2023-11-21T06:03:34;8.18;;;5.75;;
83443;SDS011;73374;41.170;-96.156;2023-11-21T06:06:02;9.45;;;5.90;;
83443;SDS011;73374;41.170;-96.156;2023-11-21T06:08:31;9.43;;;5.88;;
83443;SDS011;73374;41.170;-96.156;2023-11-21T06:10:58;8.77;;;5.85;;
83443;SDS011;73374;41.170;-96.156;2023-11-21T06:13:26;8.70;;;5.82;;
83443;SDS011;73374;41.170;-96.156;2023-11-21T06:15:53;8.25;;;5.90;;
83443;SDS011;73374;41.170;-96.156;2023-11-21T06:18:21;10.07;;;6.35;;
83443;SDS011;73374;41.170;-96.156;2023-11-21T06:20:48;8.85;;;6.43;;
83443;SDS011;73374;41.170;-96.156;2023-11-21T06:23:15;9.07;;;6.20;;
83443;SDS011;73374;41.170;-96.156;2023-11-21T06:25:44;8.77;;;6.03;;
83443;SDS011;73374;41.170;-96.156;2023-11-21T06:28:12;7.60;;;5.10;;
83443;SDS011;73374;41.170;-96.156;2023-11-21T06:30:39;9.57;;;6.35;;
83443;SDS011;73374;41.170;-96.156;2023-11-21T06:33:06;10.77;;;6.30;;
83443;SDS011;73374;41.170;-96.156;2023-11-21T06:35:34;9.93;;;6.20;;
83443;SDS011;73374;41.170;-96.156;2023-11-21T06:38:01;11.15;;;6.43;;
83443;SDS011;73374;41.170;-96.156;2023-11-21T06:40:29;8.50;;;6.38;;
83443;SDS011;73374;41.170;-96.156;2023-11-21T06:42:58;10.43;;;6.43;;
83443;SDS011;73374;41.170;-96.156;2023-11-21T06:45:25;9.43;;;6.72;;
83443;SDS011;73374;41.170;-96.156;2023-11-21T06:47:52;9.70;;;5.90;;
83443;SDS011;73374;41.170;-96.156;2023-11-21T06:50:20;8.60;;;6.63;;
83443;SDS011;73374;41.170;-96.156;2023-11-21T06:52:47;8.65;;;5.95;;
83443;SDS011;73374;41.170;-96.156;2023-11-21T06:55:15;9.02;;;6.15;;
83443;SDS011;73374;41.170;-96.156;2023-11-21T06:57:43;11.07;;;6.35;;
83443;SDS011;73374;41.170;-96.156;2023-11-21T07:00:12;10.52;;;6.68;;
83443;SDS011;73374;41.170;-96.156;2023-11-21T07:02:40;15.30;;;5.78;;
83443;SDS011;73374;41.170;-96.156;2023-11-21T07:05:08;12.15;;;7.30;;
83443;SDS011;73374;41.170;-96.156;2023-11-21T07:07:35;9.20;;;6.00;;
83443;SDS011;73374;41.170;-96.156;2023-11-21T07:10:03;10.63;;;6.95;;
83443;SDS011;73374;41.170;-96.156;2023-11-21T07:12:31;12.65;;;8.00;;
83443;SDS011;73374;41.170;-96.156;2023-11-21T07:14:58;10.98;;;7.90;;
83443;SDS011;73374;41.170;-96.156;2023-11-21T07:17:27;10.68;;;7.72;;
83443;SDS011;73374;41.170;-96.156;2023-11-21T07:19:55;10.95;;;7.13;;
83443;SDS011;73374;41.170;-96.156;2023-11-21T07:22:22;11.27;;;7.03;;
83443;SDS011;73374;41.170;-96.156;2023-11-21T07:24:49;11.13;;;7.20;;
83443;SDS011;73374;41.170;-96.156;2023-11-21T07:27:17;13.68;;;7.35;;
83443;SDS011;73374;41.170;-96.156;2023-11-21T07:29:44;12.63;;;7.70;;
83443;SDS011;73374;41.170;-96.156;2023-11-21T07:32:12;13.90;;;8.45;;
83443;SDS011;73374;41.170;-96.156;2023-11-21T07:34:41;13.77;;;7.65;;
83443;SDS011;73374;41.170;-96.156;2023-11-21T07:37:08;12.32;;;7.95;;
83443;SDS011;73374;41.170;-96.156;2023-11-21T07:39:36;18.23;;;8.20;;
83443;SDS011;73374;41.170;-96.156;2023-11-21T07:42:03;14.55;;;7.28;;
83443;SDS011;73374;41.170;-96.156;2023-11-21T07:44:31;11.98;;;7.43;;
83443;SDS011;73374;41.170;-96.156;2023-11-21T07:46:58;11.52;;;7.57;;
83443;SDS011;73374;41.170;-96.156;2023-11-21T07:49:26;14.05;;;8.13;;
83443;SDS011;73374;41.170;-96.156;2023-11-21T07:51:55;12.25;;;7.18;;
83443;SDS011;73374;41.170;-96.156;2023-11-21T07:54:22;14.13;;;7.68;;
83443;SDS011;73374;41.170;-96.156;2023-11-21T07:56:49;9.73;;;7.45;;
83443;SDS011;73374;41.170;-96.156;2023-11-21T07:59:17;11.70;;;8.25;;
83443;SDS011;73374;41.170;-96.156;2023-11-21T08:01:44;13.98;;;8.45;;
83443;SDS011;73374;41.170;-96.156;2023-11-21T08:04:12;11.35;;;6.57;;
83443;SDS011;73374;41.170;-96.156;2023-11-21T08:06:39;11.45;;;7.80;;
83443;SDS011;73374;41.170;-96.156;2023-11-21T08:09:08;12.60;;;6.50;;
83443;SDS011;73374;41.170;-96.156;2023-11-21T08:11:35;12.27;;;7.60;;
83443;SDS011;73374;41.170;-96.156;2023-11-21T08:14:03;12.07;;;7.55;;
83443;SDS011;73374;41.170;-96.156;2023-11-21T08:16:30;13.95;;;8.10;;
83443;SDS011;73374;41.170;-96.156;2023-11-21T08:18:58;14.50;;;8.57;;
83443;SDS011;73374;41.170;-96.156;2023-11-21T08:21:25;13.13;;;7.75;;
83443;SDS011;73374;41.170;-96.156;2023-11-21T08:23:52;12.75;;;8.15;;
83443;SDS011;73374;41.170;-96.156;2023-11-21T08:26:21;19.20;;;9.48;;
83443;SDS011;73374;41.170;-96.156;2023-11-21T08:28:49;15.57;;;7.55;;
83443;SDS011;73374;41.170;-96.156;2023-11-21T08:31:16;13.02;;;9.02;;
83443;SDS011;73374;41.170;-96.156;2023-11-21T08:33:44;14.07;;;9.05;;
83443;SDS011;73374;41.170;-96.156;2023-11-21T08:36:11;13.43;;;8.38;;
83443;SDS011;73374;41.170;-96.156;2023-11-21T08:38:39;13.20;;;7.97;;
83443;SDS011;73374;41.170;-96.156;2023-11-21T08:41:07;17.15;;;9.65;;
83443;SDS011;73374;41.170;-96.156;2023-11-21T08:43:36;13.18;;;8.00;;
83443;SDS011;73374;41.170;-96.156;2023-11-21T08:46:03;15.07;;;8.23;;
83443;SDS011;73374;41.170;-96.156;2023-11-21T08:48:31;14.43;;;8.32;;
83443;SDS011;73374;41.170;-96.156;2023-11-21T08:50:58;9.77;;;6.88;;
83443;SDS011;73374;41.170;-96.156;2023-11-21T08:53:26;11.35;;;7.32;;
83443;SDS011;73374;41.170;-96.156;2023-11-21T08:55:53;12.98;;;6.85;;
83443;SDS011;73374;41.170;-96.156;2023-11-21T08:58:20;16.13;;;9.38;;
83443;SDS011;73374;41.170;-96.156;2023-11-21T09:00:49;14.27;;;9.30;;
83443;SDS011;73374;41.170;-96.156;2023-11-21T09:03:17;14.25;;;8.68;;
83443;SDS011;73374;41.170;-96.156;2023-11-21T09:05:44;11.75;;;7.03;;
83443;SDS011;73374;41.170;-96.156;2023-11-21T09:08:11;15.27;;;9.20;;
83443;SDS011;73374;41.170;-96.156;2023-11-21T09:10:39;13.85;;;9.98;;
83443;SDS011;73374;41.170;-96.156;2023-11-21T09:13:06;15.60;;;10.25;;
83443;SDS011;73374;41.170;-96.156;2023-11-21T09:15:34;17.20;;;9.88;;
83443;SDS011;73374;41.170;-96.156;2023-11-21T09:18:03;16.13;;;9.50;;
83443;SDS011;73374;41.170;-96.156;2023-11-21T09:20:30;14.73;;;9.98;;
83443;SDS011;73374;41.170;-96.156;2023-11-21T09:22:58;12.85;;;8.80;;
83443;SDS011;73374;41.170;-96.156;2023-11-21T09:25:25;15.05;;;10.85;;
83443;SDS011;73374;41.170;-96.156;2023-11-21T09:27:53;21.45;;;12.20;;
83443;SDS011;73374;41.170;-96.156;2023-11-21T09:30:20;16.52;;;10.65;;
83443;SDS011;73374;41.170;-96.156;2023-11-21T09:32:47;18.70;;;11.48;;
83443;SDS011;73374;41.170;-96.156;2023-11-21T09:35:16;20.90;;;12.43;;
83443;SDS011;73374;41.170;-96.156;2023-11-21T09:40:12;20.88;;;11.40;;
83443;SDS011;73374;41.170;-96.156;2023-11-21T09:42:40;24.02;;;13.82;;
83443;SDS011;73374;41.170;-96.156;2023-11-21T09:45:09;19.38;;;13.15;;
83443;SDS011;73374;41.170;-96.156;2023-11-21T09:47:41;19.60;;;12.85;;
83443;SDS011;73374;41.170;-96.156;2023-11-21T09:50:09;23.35;;;13.13;;
83443;SDS011;73374;41.170;-96.156;2023-11-21T09:52:39;25.92;;;13.93;;
83443;SDS011;73374;41.170;-96.156;2023-11-21T09:55:11;15.48;;;10.05;;
83443;SDS011;73374;41.170;-96.156;2023-11-21T09:57:38;11.80;;;7.78;;
83443;SDS011;73374;41.170;-96.156;2023-11-21T10:00:06;11.45;;;9.15;;
83443;SDS011;73374;41.170;-96.156;2023-11-21T10:02:34;16.63;;;11.95;;
83443;SDS011;73374;41.170;-96.156;2023-11-21T10:05:02;18.35;;;11.60;;
83443;SDS011;73374;41.170;-96.156;2023-11-21T10:07:30;14.80;;;11.20;;
83443;SDS011;73374;41.170;-96.156;2023-11-21T10:10:00;12.82;;;9.18;;
83443;SDS011;73374;41.170;-96.156;2023-11-21T10:14:55;11.77;;;8.38;;
83443;SDS011;73374;41.170;-96.156;2023-11-21T10:17:25;14.55;;;9.35;;
83443;SDS011;73374;41.170;-96.156;2023-11-21T10:19:52;10.70;;;6.78;;
83443;SDS011;73374;41.170;-96.156;2023-11-21T10:22:20;7.72;;;5.90;;
83443;SDS011;73374;41.170;-96.156;2023-11-21T10:24:50;8.02;;;5.88;;
83443;SDS011;73374;41.170;-96.156;2023-11-21T10:27:21;7.18;;;3.97;;
83443;SDS011;73374;41.170;-96.156;2023-11-21T10:29:51;5.88;;;3.97;;
83443;SDS011;73374;41.170;-96.156;2023-11-21T10:32:18;3.90;;;3.20;;
83443;SDS011;73374;41.170;-96.156;2023-11-21T10:34:55;4.32;;;3.08;;
83443;SDS011;73374;41.170;-96.156;2023-11-21T10:37:23;7.18;;;2.95;;
83443;SDS011;73374;41.170;-96.156;2023-11-21T10:39:50;4.07;;;2.55;;
83443;SDS011;73374;41.170;-96.156;2023-11-21T10:42:18;3.88;;;2.30;;
83443;SDS011;73374;41.170;-96.156;2023-11-21T10:44:47;2.30;;;2.00;;
83443;SDS011;73374;41.170;-96.156;2023-11-21T10:47:15;2.30;;;1.83;;
83443;SDS011;73374;41.170;-96.156;2023-11-21T10:49:42;3.67;;;1.70;;
83443;SDS011;73374;41.170;-96.156;2023-11-21T10:52:10;2.55;;;1.15;;
83443;SDS011;73374;41.170;-96.156;2023-11-21T10:54:37;1.90;;;1.40;;
83443;SDS011;73374;41.170;-96.156;2023-11-21T10:57:05;1.38;;;1.17;;
83443;SDS011;73374;41.170;-96.156;2023-11-21T10:59:33;3.42;;;1.40;;
83443;SDS011;73374;41.170;-96.156;2023-11-21T11:02:02;2.95;;;1.20;;
83443;SDS011;73374;41.170;-96.156;2023-11-21T11:04:33;0.95;;;0.73;;
83443;SDS011;73374;41.170;-96.156;2023-11-21T11:07:01;2.15;;;0.88;;
83443;SDS011;73374;41.170;-96.156;2023-11-21T11:09:31;1.33;;;0.80;;
83443;SDS011;73374;41.170;-96.156;2023-11-21T11:11:58;1.00;;;0.80;;
83443;SDS011;73374;41.170;-96.156;2023-11-21T11:14:26;0.73;;;0.55;;
83443;SDS011;73374;41.170;-96.156;2023-11-21T11:16:54;1.02;;;0.40;;
83443;SDS011;73374;41.170;-96.156;2023-11-21T11:19:23;1.15;;;0.70;;
83443;SDS011;73374;41.170;-96.156;2023-11-21T11:21:53;1.25;;;0.50;;
83443;SDS011;73374;41.170;-96.156;2023-11-21T11:24:28;1.45;;;0.40;;
83443;SDS011;73374;41.170;-96.156;2023-11-21T11:27:01;2.00;;;0.70;;
83443;SDS011;73374;41.170;-96.156;2023-11-21T11:29:33;0.70;;;0.40;;
83443;SDS011;73374;41.170;-96.156;2023-11-21T11:32:05;1.58;;;0.93;;
83443;SDS011;73374;41.170;-96.156;2023-11-21T11:34:39;0.98;;;0.57;;
83443;SDS011;73374;41.170;-96.156;2023-11-21T11:37:08;1.77;;;0.70;;
83443;SDS011;73374;41.170;-96.156;2023-11-21T11:39:37;1.30;;;0.70;;
83443;SDS011;73374;41.170;-96.156;2023-11-21T11:42:07;2.63;;;0.77;;
83443;SDS011;73374;41.170;-96.156;2023-11-21T11:44:47;0.90;;;0.50;;
83443;SDS011;73374;41.170;-96.156;2023-11-21T11:47:15;1.55;;;0.50;;
83443;SDS011;73374;41.170;-96.156;2023-11-21T11:50:00;1.15;;;0.40;;
83443;SDS011;73374;41.170;-96.156;2023-11-21T11:52:34;2.10;;;0.47;;
83443;SDS011;73374;41.170;-96.156;2023-11-21T11:55:02;0.50;;;0.47;;
83443;SDS011;73374;41.170;-96.156;2023-11-21T11:57:30;3.65;;;0.55;;
83443;SDS011;73374;41.170;-96.156;2023-11-21T12:00:07;0.50;;;0.40;;
83443;SDS011;73374;41.170;-96.156;2023-11-21T12:02:35;2.17;;;0.50;;
83443;SDS011;73374;41.170;-96.156;2023-11-21T12:05:08;1.38;;;0.40;;
83443;SDS011;73374;41.170;-96.156;2023-11-21T12:07:41;2.05;;;0.45;;
83443;SDS011;73374;41.170;-96.156;2023-11-21T12:10:10;1.67;;;0.60;;
83443;SDS011;73374;41.170;-96.156;2023-11-21T12:12:41;2.70;;;0.50;;
83443;SDS011;73374;41.170;-96.156;2023-11-21T12:15:08;1.33;;;0.40;;
83443;SDS011;73374;41.170;-96.156;2023-11-21T12:17:36;0.60;;;0.30;;
83443;SDS011;73374;41.170;-96.156;2023-11-21T12:20:05;4.80;;;0.35;;
83443;SDS011;73374;41.170;-96.156;2023-11-21T12:22:34;0.90;;;0.50;;
83443;SDS011;73374;41.170;-96.156;2023-11-21T12:25:02;2.45;;;0.50;;
83443;SDS011;73374;41.170;-96.156;2023-11-21T12:27:30;2.88;;;0.35;;
83443;SDS011;73374;41.170;-96.156;2023-11-21T12:29:57;0.30;;;0.20;;
83443;SDS011;73374;41.170;-96.156;2023-11-21T12:32:25;1.00;;;0.47;;
83443;SDS011;73374;41.170;-96.156;2023-11-21T12:34:52;2.58;;;0.47;;
83443;SDS011;73374;41.170;-96.156;2023-11-21T12:37:20;0.38;;;0.30;;
83443;SDS011;73374;41.170;-96.156;2023-11-21T12:39:49;2.45;;;0.43;;
83443;SDS011;73374;41.170;-96.156;2023-11-21T12:42:16;1.33;;;0.40;;
83443;SDS011;73374;41.170;-96.156;2023-11-21T12:44:45;3.15;;;0.50;;
83443;SDS011;73374;41.170;-96.156;2023-11-21T12:47:16;2.38;;;0.40;;
83443;SDS011;73374;41.170;-96.156;2023-11-21T12:49:43;1.25;;;0.30;;
83443;SDS011;73374;41.170;-96.156;2023-11-21T12:52:11;1.92;;;0.38;;
83443;SDS011;73374;41.170;-96.156;2023-11-21T12:54:38;0.82;;;0.30;;
83443;SDS011;73374;41.170;-96.156;2023-11-21T12:57:07;0.90;;;0.30;;
83443;SDS011;73374;41.170;-96.156;2023-11-21T12:59:35;0.70;;;0.30;;
83443;SDS011;73374;41.170;-96.156;2023-11-21T13:02:04;0.68;;;0.25;;
83443;SDS011;73374;41.170;-96.156;2023-11-21T13:04:32;3.05;;;0.40;;
83443;SDS011;73374;41.170;-96.156;2023-11-21T13:07:04;2.13;;;0.60;;
83443;SDS011;73374;41.170;-96.156;2023-11-21T13:09:32;0.52;;;0.30;;
83443;SDS011;73374;41.170;-96.156;2023-11-21T13:11:59;2.17;;;0.45;;
83443;SDS011;73374;41.170;-96.156;2023-11-21T13:14:30;0.30;;;0.28;;
83443;SDS011;73374;41.170;-96.156;2023-11-21T13:16:57;0.45;;;0.30;;
83443;SDS011;73374;41.170;-96.156;2023-11-21T13:19:25;0.73;;;0.30;;
83443;SDS011;73374;41.170;-96.156;2023-11-21T13:21:52;0.70;;;0.40;;
83443;SDS011;73374;41.170;-96.156;2023-11-21T13:24:20;5.47;;;0.80;;
83443;SDS011;73374;41.170;-96.156;2023-11-21T13:26:47;3.10;;;0.30;;
83443;SDS011;73374;41.170;-96.156;2023-11-21T13:29:14;1.30;;;0.30;;
83443;SDS011;73374;41.170;-96.156;2023-11-21T13:31:43;0.75;;;0.40;;
83443;SDS011;73374;41.170;-96.156;2023-11-21T13:34:11;1.52;;;0.40;;
83443;SDS011;73374;41.170;-96.156;2023-11-21T13:36:39;0.93;;;0.30;;
83443;SDS011;73374;41.170;-96.156;2023-11-21T13:39:06;1.95;;;0.55;;
83443;SDS011;73374;41.170;-96.156;2023-11-21T13:41:34;0.63;;;0.35;;
83443;SDS011;73374;41.170;-96.156;2023-11-21T13:44:01;1.33;;;0.40;;
83443;SDS011;73374;41.170;-96.156;2023-11-21T13:46:29;1.13;;;0.40;;
83443;SDS011;73374;41.170;-96.156;2023-11-21T13:48:58;0.80;;;0.50;;
83443;SDS011;73374;41.170;-96.156;2023-11-21T13:51:25;0.73;;;0.40;;
83443;SDS011;73374;41.170;-96.156;2023-11-21T13:53:53;1.45;;;0.43;;
83443;SDS011;73374;41.170;-96.156;2023-11-21T13:56:20;2.78;;;0.40;;
83443;SDS011;73374;41.170;-96.156;2023-11-21T13:58:47;0.60;;;0.20;;
83443;SDS011;73374;41.170;-96.156;2023-11-21T14:01:15;0.85;;;0.50;;
83443;SDS011;73374;41.170;-96.156;2023-11-21T14:03:43;1.83;;;0.30;;
83443;SDS011;73374;41.170;-96.156;2023-11-21T14:06:12;2.67;;;0.30;;
83443;SDS011;73374;41.170;-96.156;2023-11-21T14:08:39;3.80;;;0.40;;
83443;SDS011;73374;41.170;-96.156;2023-11-21T14:11:07;5.45;;;0.30;;
83443;SDS011;73374;41.170;-96.156;2023-11-21T14:13:34;1.20;;;0.30;;
83443;SDS011;73374;41.170;-96.156;2023-11-21T14:16:02;3.50;;;0.43;;
83443;SDS011;73374;41.170;-96.156;2023-11-21T14:18:29;1.38;;;0.15;;
83443;SDS011;73374;41.170;-96.156;2023-11-21T14:20:56;0.28;;;0.25;;
83443;SDS011;73374;41.170;-96.156;2023-11-21T14:23:25;0.45;;;0.30;;